Time;durP1;ratioP1;P1;durP2;ratioP2;P2;SDS_P1;SDS_P2;PMS_P1;PMS_P2;Temp;Humidity;BMP_temperature;BMP_pressure;BME280_temperature;BME280_humidity;BME280_pressure;Samples;Min_cycle;Max_cycle;Signal;HPM_P1;HPM_P2
2023/09/01 00:01:01;;;;;;;0.47;0.43;;;18.70;99.90;;;;;;5039863;28;20027;-80
2023/09/01 00:03:26;;;;;;;1.42;0.73;;;18.70;99.90;;;;;;5035702;28;20116;-83
2023/09/01 00:05:52;;;;;;;1.38;0.95;;;18.70;99.90;;;;;;5030754;28;20112;-81
2023/09/01 00:08:18;;;;;;;4.28;1.35;;;18.60;99.90;;;;;;5031650;28;20501;-82
2023/09/01 00:10:44;;;;;;;1.00;0.80;;;18.60;99.90;;;;;;5031449;28;20022;-78
2023/09/01 00:13:10;;;;;;;0.60;0.60;;;18.50;99.90;;;;;;5017911;28;20030;-78
2023/09/01 00:15:35;;;;;;;0.80;0.52;;;18.10;99.90;;;;;;5010979;28;20037;-79
2023/09/01 00:18:02;;;;;;;4.78;0.85;;;18.30;99.90;;;;;;5009316;28;20482;-78
2023/09/01 00:20:28;;;;;;;2.95;1.02;;;18.30;99.90;;;;;;5011713;28;20022;-78
2023/09/01 00:22:53;;;;;;;1.10;1.00;;;18.20;99.90;;;;;;5011460;28;20388;-79
2023/09/01 00:25:19;;;;;;;0.70;0.70;;;18.10;99.90;;;;;;5011839;28;20099;-82
2023/09/01 00:27:44;;;;;;;1.98;0.73;;;17.90;99.90;;;;;;5011446;28;20109;-83
2023/09/01 00:30:11;;;;;;;4.05;0.82;;;17.90;99.90;;;;;;5012025;28;20027;-80
2023/09/01 00:32:36;;;;;;;4.03;0.73;;;17.80;99.90;;;;;;5012202;28;20022;-81
2023/09/01 00:35:05;;;;;;;1.05;0.98;;;17.70;99.90;;;;;;5011821;28;20075;-78
2023/09/01 00:37:30;;;;;;;0.77;0.68;;;17.70;99.90;;;;;;5023033;28;20072;-80
2023/09/01 00:39:56;;;;;;;2.80;0.90;;;17.70;99.90;;;;;;5015966;28;20105;-79
2023/09/01 00:42:21;;;;;;;2.75;1.25;;;17.80;99.90;;;;;;5012656;28;20364;-79
2023/09/01 00:44:48;;;;;;;1.45;0.60;;;17.90;99.90;;;;;;5011101;28;20086;-78
2023/09/01 00:47:13;;;;;;;0.90;0.90;;;18.00;99.90;;;;;;5018442;28;20010;-79
2023/09/01 00:49:40;;;;;;;1.60;0.70;;;18.00;99.90;;;;;;5019852;28;20041;-82
2023/09/01 00:52:06;;;;;;;1.23;1.13;;;18.10;99.90;;;;;;5034725;28;20033;-78
2023/09/01 00:54:33;;;;;;;0.70;0.68;;;18.10;99.90;;;;;;5034042;28;20033;-78
2023/09/01 00:56:59;;;;;;;0.43;0.43;;;18.10;99.90;;;;;;5034259;28;20018;-76
2023/09/01 00:59:25;;;;;;;0.80;0.70;;;18.10;99.90;;;;;;5037899;28;20030;-77
2023/09/01 01:02:17;;;;;;;5.47;0.80;;;18.10;99.90;;;;;;5035817;28;20030;-78
2023/09/01 01:04:43;;;;;;;0.60;0.55;;;18.10;99.90;;;;;;5033417;28;20042;-81
2023/09/01 01:07:25;;;;;;;1.15;0.95;;;18.00;99.90;;;;;;5022198;28;20029;-82
2023/09/01 01:10:06;;;;;;;1.25;1.00;;;18.00;99.90;;;;;;5032299;28;20032;-78
2023/09/01 01:12:40;;;;;;;4.43;1.45;;;17.90;99.90;;;;;;5029246;28;20077;-81
2023/09/01 01:15:11;;;;;;;1.38;0.75;;;17.90;99.90;;;;;;5030687;28;20060;-78
2023/09/01 01:17:40;;;;;;;3.20;1.00;;;17.90;99.90;;;;;;5032739;28;20082;-80
2023/09/01 01:20:13;;;;;;;2.40;0.80;;;17.80;99.90;;;;;;5030262;28;20026;-79
2023/09/01 01:22:43;;;;;;;3.92;1.45;;;17.80;99.90;;;;;;5033947;28;20042;-78
2023/09/01 01:25:10;;;;;;;1.15;0.57;;;17.70;99.90;;;;;;5017451;28;20011;-80
2023/09/01 01:27:41;;;;;;;2.40;0.75;;;17.80;99.90;;;;;;5024659;28;20032;-80
2023/09/01 01:30:07;;;;;;;4.90;1.50;;;17.70;99.90;;;;;;5030688;28;20030;-80
2023/09/01 01:32:34;;;;;;;2.33;0.80;;;17.60;99.90;;;;;;5019264;28;20054;-82
2023/09/01 01:35:34;;;;;;;3.05;0.50;;;17.60;99.90;;;;;;5025773;28;20022;-81
2023/09/01 01:38:21;;;;;;;3.45;0.80;;;17.50;99.90;;;;;;5015495;28;20700;-81
2023/09/01 01:40:50;;;;;;;4.32;1.42;;;17.40;99.90;;;;;;5009848;28;20025;-86
2023/09/01 01:43:21;;;;;;;3.60;1.38;;;17.40;99.90;;;;;;5011322;28;20116;-86
2023/09/01 01:45:47;;;;;;;1.38;0.85;;;17.40;99.90;;;;;;5022791;28;20338;-82
2023/09/01 01:48:13;;;;;;;0.82;0.80;;;17.40;99.90;;;;;;5029858;28;20025;-82
2023/09/01 01:50:41;;;;;;;1.83;0.73;;;17.30;99.90;;;;;;5028786;28;20056;-80
2023/09/01 01:53:07;;;;;;;0.85;0.85;;;17.30;99.90;;;;;;5028811;28;20014;-80
2023/09/01 01:55:35;;;;;;;0.75;0.75;;;17.30;99.90;;;;;;5028957;28;20372;-80
2023/09/01 01:58:05;;;;;;;3.13;0.70;;;17.20;99.90;;;;;;5031311;28;20018;-79
2023/09/01 02:00:32;;;;;;;1.27;0.60;;;17.20;99.90;;;;;;5031031;28;20029;-81
2023/09/01 02:02:58;;;;;;;0.93;0.70;;;17.10;99.90;;;;;;5029395;28;20030;-81
2023/09/01 02:05:25;;;;;;;3.75;0.90;;;16.90;99.90;;;;;;5028716;28;20052;-82
2023/09/01 02:07:51;;;;;;;1.52;0.80;;;16.80;99.90;;;;;;5028640;28;20483;-81
2023/09/01 02:10:17;;;;;;;1.13;0.70;;;16.70;99.90;;;;;;5028285;28;20087;-81
2023/09/01 02:12:43;;;;;;;5.05;1.02;;;16.60;99.90;;;;;;5028753;28;20026;-82
2023/09/01 02:15:10;;;;;;;5.18;1.23;;;16.50;99.90;;;;;;5029869;28;20018;-81
2023/09/01 02:17:36;;;;;;;2.03;0.90;;;16.50;99.90;;;;;;5028194;28;20076;-80
2023/09/01 02:20:18;;;;;;;3.78;1.10;;;16.40;99.90;;;;;;5029186;28;20067;-81
2023/09/01 02:22:45;;;;;;;5.63;1.25;;;16.50;99.90;;;;;;5027973;28;20029;-81
2023/09/01 02:25:12;;;;;;;3.85;0.70;;;16.40;99.90;;;;;;5029427;28;20033;-82
2023/09/01 02:27:40;;;;;;;3.05;0.82;;;16.40;99.90;;;;;;5029423;28;20090;-81
2023/09/01 02:30:08;;;;;;;2.60;1.17;;;16.40;99.90;;;;;;5028691;28;20032;-82
2023/09/01 02:32:33;;;;;;;1.17;1.02;;;16.40;99.90;;;;;;5029747;28;20600;-82
2023/09/01 02:35:00;;;;;;;2.60;0.68;;;16.30;99.90;;;;;;5028849;28;20128;-81
2023/09/01 02:37:26;;;;;;;4.63;0.90;;;16.30;99.90;;;;;;5027768;28;20058;-81
2023/09/01 02:39:52;;;;;;;2.53;1.10;;;16.30;99.90;;;;;;5027618;28;20092;-81
2023/09/01 02:42:17;;;;;;;1.23;0.77;;;16.20;99.90;;;;;;5027879;28;20168;-80
2023/09/01 02:44:43;;;;;;;0.80;0.75;;;16.20;99.90;;;;;;5027845;28;20029;-81
2023/09/01 02:47:08;;;;;;;0.70;0.50;;;16.30;99.90;;;;;;5030020;28;20112;-82
2023/09/01 02:49:34;;;;;;;1.55;0.63;;;16.30;99.90;;;;;;5026778;28;20104;-82
2023/09/01 02:52:01;;;;;;;6.47;1.08;;;16.20;99.90;;;;;;5029124;28;20821;-81
2023/09/01 02:54:27;;;;;;;0.63;0.50;;;16.10;99.90;;;;;;5027721;28;20435;-81
2023/09/01 02:56:53;;;;;;;1.40;0.60;;;16.10;99.90;;;;;;5029054;28;20556;-82
2023/09/01 02:59:19;;;;;;;6.63;1.27;;;16.00;99.90;;;;;;5030424;28;20053;-82
2023/09/01 03:01:44;;;;;;;1.10;0.80;;;16.10;99.90;;;;;;5030014;28;20021;-82
2023/09/01 03:04:10;;;;;;;1.27;0.60;;;16.00;99.90;;;;;;5029184;28;20171;-81
2023/09/01 03:06:35;;;;;;;4.47;1.00;;;16.00;99.90;;;;;;5029620;28;20112;-81
2023/09/01 03:09:02;;;;;;;1.30;1.20;;;15.90;99.90;;;;;;5035837;28;20530;-81
2023/09/01 03:11:28;;;;;;;4.43;0.98;;;15.80;99.90;;;;;;5036973;28;20021;-81
2023/09/01 03:13:54;;;;;;;1.85;0.88;;;15.70;99.90;;;;;;5029982;28;20624;-81
2023/09/01 03:16:19;;;;;;;0.55;0.55;;;15.60;99.90;;;;;;5028144;28;20526;-81
2023/09/01 03:18:45;;;;;;;0.80;0.70;;;15.50;99.90;;;;;;5032350;28;20100;-81
2023/09/01 03:21:12;;;;;;;1.73;0.90;;;15.40;99.90;;;;;;5036233;28;20030;-81
2023/09/01 03:23:38;;;;;;;2.42;1.00;;;15.40;99.90;;;;;;5040171;28;20029;-81
2023/09/01 03:26:05;;;;;;;1.83;1.42;;;15.20;99.90;;;;;;5042974;28;20022;-81
2023/09/01 03:28:31;;;;;;;2.47;0.90;;;15.10;99.90;;;;;;5035033;28;20108;-80
2023/09/01 03:30:57;;;;;;;1.77;1.10;;;14.90;99.90;;;;;;5039555;28;20018;-82
2023/09/01 03:33:23;;;;;;;1.90;0.95;;;14.90;99.90;;;;;;5038884;28;20030;-80
2023/09/01 03:35:49;;;;;;;1.33;1.10;;;14.70;99.90;;;;;;5038135;28;20027;-81
2023/09/01 03:38:14;;;;;;;0.70;0.70;;;14.60;99.90;;;;;;5039055;28;20068;-81
2023/09/01 03:40:41;;;;;;;2.13;1.17;;;14.60;99.90;;;;;;5039997;28;20210;-79
2023/09/01 03:43:07;;;;;;;2.67;0.75;;;14.50;99.90;;;;;;5032357;28;20026;-80
2023/09/01 03:45:33;;;;;;;1.10;1.00;;;14.40;99.90;;;;;;5032812;28;20033;-81
2023/09/01 03:47:58;;;;;;;1.55;1.17;;;14.30;99.90;;;;;;5030582;28;20025;-80
2023/09/01 03:50:24;;;;;;;6.65;1.05;;;14.30;99.90;;;;;;5030367;28;20031;-80
2023/09/01 03:52:50;;;;;;;5.53;1.50;;;14.20;99.90;;;;;;5030581;28;20034;-80
2023/09/01 03:55:15;;;;;;;1.33;0.73;;;14.10;99.90;;;;;;5034009;28;20018;-79
2023/09/01 03:57:43;;;;;;;3.45;1.30;;;14.10;99.90;;;;;;5034542;28;20025;-79
2023/09/01 04:00:10;;;;;;;1.20;0.80;;;13.90;99.90;;;;;;5038652;28;20064;-81
2023/09/01 04:02:36;;;;;;;0.90;0.90;;;13.80;99.90;;;;;;5034809;28;20034;-80
2023/09/01 04:05:03;;;;;;;1.35;1.00;;;13.80;99.90;;;;;;5037873;28;20052;-79
2023/09/01 04:07:29;;;;;;;8.90;1.45;;;13.90;99.90;;;;;;5035860;28;20032;-79
2023/09/01 04:09:56;;;;;;;1.27;1.10;;;13.80;99.90;;;;;;5031977;28;20394;-80
2023/09/01 04:12:21;;;;;;;1.70;1.17;;;13.70;99.90;;;;;;5033369;28;20032;-80
2023/09/01 04:14:47;;;;;;;1.20;1.10;;;13.60;99.90;;;;;;5032205;28;20025;-80
2023/09/01 04:17:13;;;;;;;2.25;0.90;;;13.50;99.90;;;;;;5033965;28;20029;-80
2023/09/01 04:19:38;;;;;;;2.08;1.40;;;13.40;99.90;;;;;;5032938;28;20111;-80
2023/09/01 04:22:04;;;;;;;1.40;1.10;;;13.30;99.90;;;;;;5033821;28;20025;-81
2023/09/01 04:24:30;;;;;;;1.55;1.25;;;13.30;99.90;;;;;;5032976;28;20095;-81
2023/09/01 04:26:55;;;;;;;4.47;1.30;;;13.30;99.90;;;;;;5036850;28;20364;-80
2023/09/01 04:29:21;;;;;;;2.05;1.20;;;13.30;99.90;;;;;;5035597;28;20036;-80
2023/09/01 04:31:48;;;;;;;1.27;1.00;;;13.30;99.90;;;;;;5035994;28;20117;-79
2023/09/01 04:34:14;;;;;;;5.15;0.90;;;13.30;99.90;;;;;;5035689;28;20128;-80
2023/09/01 04:36:39;;;;;;;1.20;1.10;;;13.20;99.90;;;;;;5035775;28;20048;-79
2023/09/01 04:39:05;;;;;;;1.52;1.20;;;13.10;99.90;;;;;;5035419;28;20108;-81
2023/09/01 04:41:32;;;;;;;0.82;0.80;;;13.10;99.90;;;;;;5034764;28;20090;-80
2023/09/01 04:43:58;;;;;;;5.93;1.40;;;13.10;99.90;;;;;;5033608;28;20067;-80
2023/09/01 04:46:24;;;;;;;5.35;1.40;;;13.10;99.90;;;;;;5035756;28;20116;-80
2023/09/01 04:48:50;;;;;;;1.60;1.20;;;13.00;99.90;;;;;;5038353;28;20106;-80
2023/09/01 04:51:15;;;;;;;1.40;0.98;;;13.00;99.90;;;;;;5035731;28;20066;-79
2023/09/01 04:53:41;;;;;;;1.85;1.10;;;13.10;99.90;;;;;;5036645;28;20116;-80
2023/09/01 04:56:07;;;;;;;1.58;1.15;;;13.00;99.90;;;;;;5036367;28;20025;-79
2023/09/01 04:58:32;;;;;;;4.25;0.80;;;13.00;99.90;;;;;;5036174;28;20059;-79
2023/09/01 05:00:58;;;;;;;2.00;1.30;;;13.00;99.90;;;;;;5034539;28;20371;-79
2023/09/01 05:03:24;;;;;;;1.70;1.20;;;13.00;99.90;;;;;;5033688;28;20616;-80
2023/09/01 05:05:50;;;;;;;4.32;1.30;;;12.90;99.90;;;;;;5035297;28;20048;-80
2023/09/01 05:08:17;;;;;;;3.28;1.00;;;13.00;99.90;;;;;;5033920;28;20030;-79
2023/09/01 05:10:43;;;;;;;6.45;1.10;;;13.00;99.90;;;;;;5031303;28;20025;-79
2023/09/01 05:13:08;;;;;;;2.38;1.27;;;13.20;99.90;;;;;;5030659;28;20017;-79
2023/09/01 05:15:35;;;;;;;1.30;1.20;;;13.30;99.90;;;;;;5032678;28;20109;-79
2023/09/01 05:18:01;;;;;;;2.35;1.83;;;13.30;99.90;;;;;;5030229;28;20029;-78
2023/09/01 05:20:26;;;;;;;2.08;1.08;;;13.40;99.90;;;;;;5031506;28;20022;-79
2023/09/01 05:22:52;;;;;;;1.30;1.05;;;13.50;99.90;;;;;;5031602;28;20025;-79
2023/09/01 05:25:18;;;;;;;1.85;1.17;;;13.60;99.90;;;;;;5032651;28;20036;-79
2023/09/01 05:27:44;;;;;;;1.48;1.38;;;13.60;99.90;;;;;;5034534;28;20030;-79
2023/09/01 05:30:12;;;;;;;3.78;1.52;;;13.70;99.90;;;;;;5032461;28;20030;-79
2023/09/01 05:32:38;;;;;;;1.40;1.10;;;13.70;99.90;;;;;;5031745;28;20033;-80
2023/09/01 05:35:04;;;;;;;1.13;0.93;;;13.70;99.90;;;;;;5032014;28;20104;-80
2023/09/01 05:37:30;;;;;;;1.88;0.93;;;13.70;99.90;;;;;;5029381;28;20479;-79
2023/09/01 05:39:56;;;;;;;1.33;0.82;;;13.80;99.90;;;;;;5029013;28;20109;-81
2023/09/01 05:42:21;;;;;;;0.98;0.98;;;14.00;99.90;;;;;;5030045;28;20489;-81
2023/09/01 05:44:47;;;;;;;1.13;1.00;;;14.10;99.90;;;;;;5030226;28;20449;-81
2023/09/01 05:47:13;;;;;;;1.05;0.95;;;14.40;99.90;;;;;;5029510;28;20029;-81
2023/09/01 05:49:39;;;;;;;2.63;1.08;;;14.60;99.90;;;;;;5032029;28;20025;-80
2023/09/01 05:52:04;;;;;;;3.15;1.08;;;14.80;99.90;;;;;;5032442;28;20021;-80
2023/09/01 05:54:30;;;;;;;1.83;0.88;;;14.90;99.90;;;;;;5032903;28;20035;-79
2023/09/01 05:56:56;;;;;;;0.95;0.95;;;14.90;99.90;;;;;;5030227;28;20394;-80
2023/09/01 05:59:21;;;;;;;1.08;0.93;;;15.00;99.90;;;;;;5028966;28;20065;-80
2023/09/01 06:01:47;;;;;;;2.15;0.93;;;15.10;99.90;;;;;;5028974;28;20052;-79
2023/09/01 06:04:13;;;;;;;2.28;1.50;;;15.10;99.90;;;;;;5028288;28;20037;-80
2023/09/01 06:06:40;;;;;;;0.82;0.82;;;15.10;99.90;;;;;;5029688;28;20287;-79
2023/09/01 06:09:06;;;;;;;0.85;0.85;;;15.10;99.90;;;;;;5028592;28;20025;-81
2023/09/01 06:11:35;;;;;;;1.48;0.85;;;15.20;99.90;;;;;;5028533;28;20021;-80
2023/09/01 06:14:01;;;;;;;2.58;1.30;;;15.20;99.90;;;;;;5029665;28;20288;-79
2023/09/01 06:16:27;;;;;;;1.15;0.65;;;15.20;99.90;;;;;;5028247;28;20283;-80
2023/09/01 06:18:53;;;;;;;2.97;0.98;;;15.20;99.90;;;;;;5027799;28;20033;-79
2023/09/01 06:21:19;;;;;;;1.42;0.93;;;15.30;99.90;;;;;;5029634;28;20025;-79
2023/09/01 06:23:45;;;;;;;5.15;0.82;;;15.40;99.90;;;;;;5030211;28;20044;-80
2023/09/01 06:26:12;;;;;;;1.77;1.08;;;15.50;99.90;;;;;;5028188;28;20029;-79
2023/09/01 06:28:40;;;;;;;1.02;0.90;;;15.50;99.90;;;;;;5029486;28;20079;-79
2023/09/01 06:31:06;;;;;;;2.35;1.42;;;15.60;99.90;;;;;;5029590;28;20028;-80
2023/09/01 06:33:31;;;;;;;1.95;0.93;;;15.70;99.90;;;;;;5027916;28;20029;-79
2023/09/01 06:35:57;;;;;;;1.00;0.88;;;15.80;99.90;;;;;;5027649;28;20386;-80
2023/09/01 06:38:23;;;;;;;0.85;0.85;;;16.00;99.90;;;;;;5028109;28;20037;-79
2023/09/01 06:40:49;;;;;;;0.73;0.73;;;16.40;99.90;;;;;;5029349;28;20025;-79
2023/09/01 06:43:14;;;;;;;0.95;0.75;;;16.90;99.90;;;;;;5029341;28;20167;-80
2023/09/01 06:45:41;;;;;;;1.38;0.80;;;17.50;99.90;;;;;;5027762;28;20292;-80
2023/09/01 06:48:07;;;;;;;0.57;0.55;;;18.00;99.90;;;;;;5028990;28;20257;-80
2023/09/01 06:50:32;;;;;;;3.38;1.65;;;18.50;99.90;;;;;;5027734;28;20068;-80
2023/09/01 06:52:58;;;;;;;17.77;1.50;;;18.90;99.90;;;;;;5028906;28;20018;-80
2023/09/01 06:55:24;;;;;;;1.85;0.95;;;19.10;99.90;;;;;;5027689;28;20470;-80
2023/09/01 06:57:50;;;;;;;1.70;0.75;;;19.30;99.90;;;;;;5027735;28;20040;-79
2023/09/01 07:00:16;;;;;;;0.70;0.70;;;19.50;99.90;;;;;;5027742;28;20031;-80
2023/09/01 07:02:42;;;;;;;0.75;0.60;;;19.60;99.90;;;;;;5027314;28;20034;-79
2023/09/01 07:05:07;;;;;;;1.40;0.70;;;19.60;99.90;;;;;;5028069;28;20437;-80
2023/09/01 07:07:33;;;;;;;2.80;0.60;;;19.70;99.90;;;;;;5029056;28;20470;-80
2023/09/01 07:09:59;;;;;;;1.73;0.80;;;19.60;99.90;;;;;;5028626;28;20025;-80
2023/09/01 07:12:24;;;;;;;3.17;0.80;;;19.70;99.90;;;;;;5030948;28;20080;-81
2023/09/01 07:14:50;;;;;;;0.80;0.68;;;19.70;99.90;;;;;;5029207;28;20083;-79
2023/09/01 07:17:21;;;;;;;0.98;0.43;;;19.90;99.90;;;;;;5031441;28;20067;-79
2023/09/01 07:19:47;;;;;;;2.10;0.90;;;20.00;99.90;;;;;;5033599;28;20022;-80
2023/09/01 07:22:12;;;;;;;1.75;0.98;;;20.40;99.90;;;;;;5030533;28;20324;-79
2023/09/01 07:24:38;;;;;;;2.85;0.95;;;20.70;99.90;;;;;;5029815;28;20340;-81
2023/09/01 07:27:06;;;;;;;2.58;0.98;;;20.90;99.90;;;;;;5029988;28;20083;-80
2023/09/01 07:29:32;;;;;;;1.85;0.75;;;20.90;99.90;;;;;;5030233;28;20336;-81
2023/09/01 07:31:59;;;;;;;1.75;1.05;;;21.00;99.90;;;;;;5027243;28;20052;-81
2023/09/01 07:34:26;;;;;;;1.60;0.93;;;21.20;99.90;;;;;;5026876;28;20045;-79
2023/09/01 07:36:51;;;;;;;2.92;0.95;;;21.40;99.90;;;;;;5029328;28;20047;-79
2023/09/01 07:39:17;;;;;;;1.13;0.70;;;21.30;99.90;;;;;;5031698;28;20099;-81
2023/09/01 07:41:43;;;;;;;3.15;0.60;;;21.20;99.90;;;;;;5030955;28;20027;-81
2023/09/01 07:44:08;;;;;;;1.20;0.70;;;21.10;99.90;;;;;;5033198;28;20044;-80
2023/09/01 07:46:34;;;;;;;3.15;0.50;;;21.20;99.90;;;;;;5034394;28;20021;-80
2023/09/01 07:49:00;;;;;;;0.88;0.63;;;21.50;99.90;;;;;;5035790;28;20029;-80
2023/09/01 07:51:26;;;;;;;0.57;0.57;;;21.80;99.90;;;;;;5034065;28;20097;-79
2023/09/01 07:53:54;;;;;;;1.58;0.88;;;22.00;99.90;;;;;;5031394;28;20116;-79
2023/09/01 07:56:20;;;;;;;1.98;0.50;;;22.20;99.90;;;;;;5017975;28;20040;-80
2023/09/01 07:58:46;;;;;;;0.68;0.63;;;22.40;99.90;;;;;;5012344;28;20434;-79
2023/09/01 08:01:11;;;;;;;0.65;0.65;;;22.50;99.90;;;;;;5013292;28;20022;-79
2023/09/01 08:03:37;;;;;;;1.20;1.10;;;22.90;99.90;;;;;;5013674;28;20038;-78
2023/09/01 08:06:04;;;;;;;1.33;0.80;;;23.00;99.90;;;;;;5013065;28;20252;-78
2023/09/01 08:08:30;;;;;;;2.53;0.70;;;23.30;99.90;;;;;;5013704;28;20182;-78
2023/09/01 08:10:55;;;;;;;0.75;0.57;;;23.30;99.90;;;;;;5012155;28;20188;-77
2023/09/01 08:13:22;;;;;;;1.27;0.70;;;23.50;99.40;;;;;;5013268;28;20029;-78
2023/09/01 08:15:48;;;;;;;1.38;0.82;;;23.50;98.90;;;;;;5013027;28;20108;-78
2023/09/01 08:18:13;;;;;;;1.65;0.70;;;23.50;99.20;;;;;;5014618;28;20058;-77
2023/09/01 08:20:40;;;;;;;0.90;0.52;;;23.60;98.70;;;;;;5022343;28;20033;-78
2023/09/01 08:23:06;;;;;;;3.22;0.90;;;23.90;97.70;;;;;;5023696;28;20049;-78
2023/09/01 08:25:32;;;;;;;1.75;0.77;;;24.10;95.50;;;;;;5021306;28;20060;-79
2023/09/01 08:27:58;;;;;;;0.52;0.52;;;24.20;94.80;;;;;;5022760;28;20026;-77
2023/09/01 08:30:26;;;;;;;3.47;1.10;;;24.30;94.30;;;;;;5024534;28;20057;-76
2023/09/01 08:32:52;;;;;;;0.98;0.80;;;23.90;94.60;;;;;;5028898;28;20025;-77
2023/09/01 08:35:18;;;;;;;1.63;0.57;;;24.00;94.60;;;;;;5032847;28;20056;-78
2023/09/01 08:37:43;;;;;;;1.08;0.50;;;23.90;94.30;;;;;;5030133;28;20100;-77
2023/09/01 08:40:10;;;;;;;0.63;0.50;;;23.70;94.40;;;;;;5031200;28;20456;-77
2023/09/01 08:42:47;;;;;;;2.30;0.60;;;23.50;95.20;;;;;;5030965;28;20022;-80
2023/09/01 08:45:19;;;;;;;2.28;0.70;;;23.90;95.20;;;;;;5031265;28;20393;-78
2023/09/01 08:47:46;;;;;;;1.65;0.35;;;24.70;94.60;;;;;;5030358;28;20021;-77
2023/09/01 08:50:13;;;;;;;1.13;0.70;;;26.00;92.10;;;;;;5032336;28;20099;-78
2023/09/01 08:52:42;;;;;;;1.75;0.40;;;26.40;90.20;;;;;;5031644;28;20075;-76
2023/09/01 08:55:08;;;;;;;1.73;0.73;;;26.60;89.40;;;;;;5031032;28;20192;-78
2023/09/01 08:57:33;;;;;;;1.50;0.60;;;26.80;86.20;;;;;;5026179;28;20083;-79
2023/09/01 08:59:59;;;;;;;0.60;0.60;;;25.80;87.70;;;;;;5031156;28;20026;-79
2023/09/01 09:02:25;;;;;;;1.40;0.40;;;25.50;89.10;;;;;;5031607;28;20517;-76
2023/09/01 09:04:50;;;;;;;0.85;0.85;;;25.60;89.10;;;;;;5030558;28;20041;-77
2023/09/01 09:07:20;;;;;;;0.98;0.50;;;25.90;88.20;;;;;;5030619;28;20033;-77
2023/09/01 09:10:06;;;;;;;1.02;0.80;;;26.80;86.30;;;;;;5029502;28;20026;-76
2023/09/01 09:12:43;;;;;;;1.15;0.98;;;26.90;85.80;;;;;;5032094;28;20359;-76
2023/09/01 09:15:14;;;;;;;1.08;0.98;;;26.40;86.50;;;;;;5022026;28;20501;-79
2023/09/01 09:17:44;;;;;;;0.70;0.52;;;25.70;88.20;;;;;;5011048;28;20064;-78
2023/09/01 09:20:18;;;;;;;2.80;1.08;;;25.50;87.80;;;;;;5015486;28;20424;-76
2023/09/01 09:22:59;;;;;;;0.52;0.50;;;25.20;87.50;;;;;;5020711;28;20188;-76
2023/09/01 09:25:33;;;;;;;2.97;1.20;;;24.90;90.00;;;;;;5022141;28;20148;-76
2023/09/01 09:28:01;;;;;;;2.17;0.80;;;24.70;91.30;;;;;;5023667;28;20082;-78
2023/09/01 09:30:27;;;;;;;1.30;0.70;;;24.90;90.10;;;;;;5017527;28;20497;-79
2023/09/01 09:33:06;;;;;;;0.40;0.40;;;25.20;88.60;;;;;;5028586;28;20021;-79
2023/09/01 09:35:47;;;;;;;1.73;0.75;;;25.00;87.80;;;;;;5033339;28;20029;-79
2023/09/01 09:38:13;;;;;;;0.77;0.70;;;24.80;90.00;;;;;;5030545;28;20408;-78
2023/09/01 09:40:38;;;;;;;22.75;1.23;;;24.60;88.20;;;;;;5028979;28;20026;-78
2023/09/01 09:43:08;;;;;;;0.40;0.40;;;24.50;90.10;;;;;;5018919;28;20041;-79
2023/09/01 09:45:34;;;;;;;1.00;0.63;;;24.30;90.30;;;;;;5015813;28;20026;-78
2023/09/01 09:48:02;;;;;;;0.93;0.30;;;24.30;90.10;;;;;;5014716;28;20034;-78
2023/09/01 09:50:29;;;;;;;1.80;0.68;;;24.40;90.60;;;;;;5019699;28;20056;-79
2023/09/01 09:53:05;;;;;;;6.05;0.73;;;24.40;90.40;;;;;;5016795;28;20569;-79
2023/09/01 09:55:45;;;;;;;2.65;0.52;;;24.40;90.50;;;;;;5014684;28;20021;-79
2023/09/01 09:58:12;;;;;;;1.17;0.50;;;24.00;90.40;;;;;;5017339;28;20022;-79
2023/09/01 10:00:54;;;;;;;0.85;0.20;;;24.10;90.50;;;;;;5014045;28;20021;-78
2023/09/01 10:03:24;;;;;;;0.65;0.65;;;24.20;90.30;;;;;;5017081;28;20025;-78
2023/09/01 10:05:51;;;;;;;1.02;0.50;;;24.20;90.80;;;;;;5015278;28;20029;-79
2023/09/01 10:08:20;;;;;;;1.42;0.80;;;24.60;90.80;;;;;;5017958;28;20447;-79
2023/09/01 10:10:46;;;;;;;0.93;0.68;;;24.40;92.40;;;;;;5011701;28;20056;-79
2023/09/01 10:13:12;;;;;;;0.60;0.50;;;24.40;90.70;;;;;;5009210;28;20080;-78
2023/09/01 10:15:39;;;;;;;1.05;0.98;;;24.40;90.50;;;;;;5013026;28;20048;-78
2023/09/01 10:18:08;;;;;;;2.33;0.93;;;24.60;90.40;;;;;;5017544;28;20028;-75
2023/09/01 10:20:42;;;;;;;0.75;0.40;;;24.70;90.00;;;;;;5026450;28;20021;-76
2023/09/01 10:23:09;;;;;;;0.47;0.47;;;24.60;90.10;;;;;;5029852;28;20064;-76
2023/09/01 10:25:35;;;;;;;1.33;0.57;;;24.60;90.40;;;;;;5035455;28;20040;-76
2023/09/01 10:28:07;;;;;;;2.30;0.55;;;24.40;90.90;;;;;;5019840;28;20478;-82
2023/09/01 10:30:44;;;;;;;4.22;0.65;;;24.20;90.80;;;;;;5018381;28;20033;-80
2023/09/01 10:33:14;;;;;;;2.08;0.75;;;24.00;91.00;;;;;;5009104;28;20038;-79
2023/09/01 10:35:45;;;;;;;1.50;0.80;;;23.70;91.10;;;;;;5015685;28;20071;-79
2023/09/01 10:38:15;;;;;;;0.88;0.82;;;23.70;93.20;;;;;;5027266;28;20071;-80
2023/09/01 10:40:51;;;;;;;1.33;0.60;;;23.50;91.70;;;;;;5028985;28;20056;-77
2023/09/01 10:43:37;;;;;;;0.90;0.70;;;23.50;91.40;;;;;;5028883;28;20029;-80
2023/09/01 10:46:12;;;;;;;0.80;0.47;;;23.60;91.50;;;;;;5027583;28;20028;-80
2023/09/01 10:48:52;;;;;;;1.15;0.73;;;24.00;91.30;;;;;;5028834;28;20025;-79
2023/09/01 10:51:33;;;;;;;1.00;0.73;;;24.40;90.90;;;;;;5026994;28;20029;-79
2023/09/01 10:54:00;;;;;;;1.02;0.60;;;24.30;91.00;;;;;;5028843;28;20151;-79
2023/09/01 10:56:27;;;;;;;0.75;0.60;;;24.30;91.10;;;;;;5027342;28;20037;-78
2023/09/01 10:58:55;;;;;;;0.82;0.50;;;24.70;91.20;;;;;;5027438;28;20025;-78
2023/09/01 11:01:37;;;;;;;1.13;0.60;;;25.40;89.80;;;;;;5027291;28;20128;-76
2023/09/01 11:04:21;;;;;;;0.52;0.50;;;25.50;89.40;;;;;;5026596;28;20120;-76
2023/09/01 11:07:00;;;;;;;0.50;0.50;;;25.20;90.00;;;;;;5026974;28;20071;-76
2023/09/01 11:09:34;;;;;;;0.52;0.52;;;25.10;90.20;;;;;;5026820;28;20468;-80
2023/09/01 11:12:07;;;;;;;2.63;0.60;;;24.90;90.70;;;;;;5030404;28;20032;-79
2023/09/01 11:14:34;;;;;;;0.73;0.60;;;25.20;88.00;;;;;;5031995;28;20010;-79
2023/09/01 11:17:00;;;;;;;1.83;0.88;;;25.40;88.20;;;;;;5032265;28;20028;-79
2023/09/01 11:19:26;;;;;;;4.57;0.45;;;26.10;89.00;;;;;;5030615;28;20069;-78
2023/09/01 11:21:52;;;;;;;0.50;0.40;;;26.10;85.00;;;;;;5021142;28;20470;-76
2023/09/01 11:24:21;;;;;;;2.03;0.65;;;25.40;87.60;;;;;;5023301;28;20048;-79
2023/09/01 11:26:51;;;;;;;0.88;0.57;;;24.90;89.50;;;;;;5041426;28;20121;-78
2023/09/01 11:29:18;;;;;;;2.10;0.85;;;24.80;90.30;;;;;;5033598;28;20021;-76
2023/09/01 11:31:44;;;;;;;0.70;0.70;;;25.20;90.30;;;;;;5031478;28;20502;-77
2023/09/01 11:34:10;;;;;;;0.95;0.68;;;25.20;89.80;;;;;;5032613;28;20064;-76
2023/09/01 11:36:49;;;;;;;0.50;0.50;;;25.80;88.60;;;;;;5030693;28;20137;-76
2023/09/01 11:39:16;;;;;;;1.25;0.85;;;26.40;86.60;;;;;;5031072;28;20306;-76
2023/09/01 11:41:42;;;;;;;3.35;1.20;;;26.90;88.90;;;;;;5034070;28;20028;-76
2023/09/01 11:44:08;;;;;;;0.55;0.55;;;27.60;83.10;;;;;;5032425;28;20072;-76
2023/09/01 11:46:35;;;;;;;3.10;0.60;;;28.00;81.30;;;;;;5035824;28;20053;-76
2023/09/01 11:49:01;;;;;;;2.05;0.30;;;27.70;81.40;;;;;;5031917;28;20037;-76
2023/09/01 11:51:37;;;;;;;0.60;0.60;;;27.40;81.20;;;;;;5036530;28;20489;-76
2023/09/01 11:54:03;;;;;;;1.25;0.55;;;27.90;80.40;;;;;;5033124;28;20022;-76
2023/09/01 11:56:29;;;;;;;2.20;0.68;;;27.30;81.40;;;;;;5031179;28;20045;-79
2023/09/01 11:58:57;;;;;;;1.00;0.60;;;25.90;82.20;;;;;;5031440;28;20060;-78
2023/09/01 12:01:24;;;;;;;1.05;0.60;;;25.90;86.80;;;;;;5032580;28;20021;-79
2023/09/01 12:04:05;;;;;;;1.08;0.77;;;25.90;85.10;;;;;;5029863;28;20069;-78
2023/09/01 12:06:31;;;;;;;1.42;0.60;;;27.10;86.30;;;;;;5020655;28;20026;-78
2023/09/01 12:09:17;;;;;;;0.30;0.30;;;27.70;83.20;;;;;;5022723;28;20041;-79
2023/09/01 12:11:53;;;;;;;1.70;0.47;;;27.30;82.00;;;;;;5020855;28;20029;-79
2023/09/01 12:14:29;;;;;;;0.60;0.50;;;27.10;82.00;;;;;;5018109;28;20052;-79
2023/09/01 12:16:55;;;;;;;0.40;0.40;;;27.40;82.40;;;;;;5010129;28;20029;-76
2023/09/01 12:19:22;;;;;;;0.68;0.57;;;28.40;81.30;;;;;;5011056;28;20049;-77
2023/09/01 12:21:49;;;;;;;1.05;0.50;;;29.30;78.30;;;;;;5009871;28;20509;-76
2023/09/01 12:24:15;;;;;;;0.55;0.40;;;29.70;76.60;;;;;;5018156;28;20151;-78
2023/09/01 12:26:40;;;;;;;0.68;0.68;;;29.40;77.00;;;;;;5018914;28;20399;-76
2023/09/01 12:29:06;;;;;;;0.52;0.52;;;29.10;75.30;;;;;;5020430;28;20024;-76
2023/09/01 12:31:31;;;;;;;0.60;0.60;;;28.80;76.10;;;;;;5019197;28;20021;-76
2023/09/01 12:33:57;;;;;;;4.25;0.68;;;29.30;78.30;;;;;;5020733;28;20029;-77
2023/09/01 12:36:23;;;;;;;1.75;1.02;;;29.70;77.30;;;;;;5023435;28;20091;-77
2023/09/01 12:38:48;;;;;;;2.65;0.88;;;29.30;75.70;;;;;;5017875;28;20356;-77
2023/09/01 12:41:14;;;;;;;2.20;0.47;;;28.00;74.80;;;;;;5018974;28;20426;-78
2023/09/01 12:43:39;;;;;;;0.65;0.55;;;28.60;77.60;;;;;;5022694;28;20038;-76
2023/09/01 12:46:08;;;;;;;0.77;0.50;;;29.80;75.40;;;;;;5017890;28;20458;-78
2023/09/01 12:48:34;;;;;;;0.55;0.55;;;30.20;73.30;;;;;;5023791;28;20036;-77
2023/09/01 12:50:59;;;;;;;1.08;0.47;;;30.50;73.70;;;;;;5022254;28;20230;-76